Comblain-au-Pont, Belgium
Current Conditions -  °F | °C
As of 4:20 PM on Thursday 23 Oct 2014 (Local Time) from EBLG Reporting Station
Broken Clouds Broken Clouds  
Wind Chill: 54°   Ceiling: 3300
Heat Index: 54°   Visibility: 6mi
Dew Point: 48°   Wind: 12mph
Humidity: 82%   Direction: 220°SW
Pressure: 30.21"   Gusts: NA
Location:  50.47°N, 5.58°E
Report Text: EBLG 231420Z 22010KT 9999 SCT016 BKN033 12/09 Q1023 NOSIG
Loading
Personal Weather Stations






























Interactive Weather Map
Tropical Storm Tracking
New forecast layout! Learn more

10-Day Weather Forecast

Advertisements
Track Severe Weather on mobile